sensor_id;sensor_type;location;lat;lon;timestamp;P1;durP1;ratioP1;P2;durP2;ratioP2
31348;SDS011;17976;48.480;11.946;2023-02-04T13:51:34;1.77;;;0.40;;
31348;SDS011;17976;48.480;11.946;2023-02-04T13:53:59;0.50;;;0.50;;
31348;SDS011;17976;48.480;11.946;2023-02-04T13:56:26;0.63;;;0.57;;
31348;SDS011;17976;48.480;11.946;2023-02-04T13:58:52;0.50;;;0.50;;
31348;SDS011;17976;48.480;11.946;2023-02-04T14:01:18;1.25;;;0.70;;
31348;SDS011;17976;48.480;11.946;2023-02-04T14:03:44;0.52;;;0.50;;
31348;SDS011;17976;48.480;11.946;2023-02-04T14:06:10;0.80;;;0.50;;
31348;SDS011;17976;48.480;11.946;2023-02-04T14:08:36;0.50;;;0.40;;
31348;SDS011;17976;48.480;11.946;2023-02-04T14:11:02;0.52;;;0.43;;
31348;SDS011;17976;48.480;11.946;2023-02-04T14:13:29;1.25;;;0.52;;
31348;SDS011;17976;48.480;11.946;2023-02-04T14:15:55;0.57;;;0.50;;
31348;SDS011;17976;48.480;11.946;2023-02-04T14:18:21;0.40;;;0.40;;
31348;SDS011;17976;48.480;11.946;2023-02-04T14:20:47;1.00;;;0.60;;
31348;SDS011;17976;48.480;11.946;2023-02-04T14:23:13;0.63;;;0.47;;
31348;SDS011;17976;48.480;11.946;2023-02-04T14:25:39;0.57;;;0.43;;
31348;SDS011;17976;48.480;11.946;2023-02-04T14:28:05;0.60;;;0.52;;
31348;SDS011;17976;48.480;11.946;2023-02-04T14:30:31;0.43;;;0.43;;
31348;SDS011;17976;48.480;11.946;2023-02-04T14:32:57;0.43;;;0.40;;
31348;SDS011;17976;48.480;11.946;2023-02-04T14:35:24;0.73;;;0.45;;
31348;SDS011;17976;48.480;11.946;2023-02-04T14:37:50;0.75;;;0.40;;
31348;SDS011;17976;48.480;11.946;2023-02-04T14:40:17;1.25;;;0.52;;
31348;SDS011;17976;48.480;11.946;2023-02-04T14:42:43;1.08;;;0.63;;
31348;SDS011;17976;48.480;11.946;2023-02-04T14:45:10;0.40;;;0.40;;
31348;SDS011;17976;48.480;11.946;2023-02-04T14:47:36;1.33;;;0.90;;
31348;SDS011;17976;48.480;11.946;2023-02-04T14:50:04;1.50;;;0.80;;
31348;SDS011;17976;48.480;11.946;2023-02-04T14:52:30;1.15;;;0.65;;
31348;SDS011;17976;48.480;11.946;2023-02-04T14:54:56;0.80;;;0.50;;
31348;SDS011;17976;48.480;11.946;2023-02-04T14:57:23;1.05;;;0.40;;
31348;SDS011;17976;48.480;11.946;2023-02-04T14:59:49;0.52;;;0.40;;
31348;SDS011;17976;48.480;11.946;2023-02-04T15:02:15;0.60;;;0.52;;
31348;SDS011;17976;48.480;11.946;2023-02-04T15:04:41;0.75;;;0.45;;
31348;SDS011;17976;48.480;11.946;2023-02-04T15:07:08;0.90;;;0.47;;
31348;SDS011;17976;48.480;11.946;2023-02-04T15:09:34;2.17;;;0.65;;
31348;SDS011;17976;48.480;11.946;2023-02-04T15:12:00;0.82;;;0.50;;
31348;SDS011;17976;48.480;11.946;2023-02-04T15:14:26;1.65;;;0.70;;
31348;SDS011;17976;48.480;11.946;2023-02-04T15:16:52;1.10;;;0.70;;
31348;SDS011;17976;48.480;11.946;2023-02-04T15:19:18;1.58;;;0.80;;
31348;SDS011;17976;48.480;11.946;2023-02-04T15:21:44;1.05;;;0.80;;
31348;SDS011;17976;48.480;11.946;2023-02-04T15:24:10;2.00;;;1.15;;
31348;SDS011;17976;48.480;11.946;2023-02-04T15:26:36;1.70;;;1.00;;
31348;SDS011;17976;48.480;11.946;2023-02-04T15:29:02;8.18;;;3.53;;
31348;SDS011;17976;48.480;11.946;2023-02-04T15:31:28;4.93;;;2.03;;
31348;SDS011;17976;48.480;11.946;2023-02-04T15:33:54;3.28;;;1.02;;
31348;SDS011;17976;48.480;11.946;2023-02-04T15:36:20;0.70;;;0.70;;
31348;SDS011;17976;48.480;11.946;2023-02-04T15:38:46;1.10;;;0.80;;
31348;SDS011;17976;48.480;11.946;2023-02-04T15:41:12;2.72;;;0.85;;
31348;SDS011;17976;48.480;11.946;2023-02-04T15:43:38;1.60;;;0.73;;
31348;SDS011;17976;48.480;11.946;2023-02-04T15:46:04;2.08;;;1.00;;
31348;SDS011;17976;48.480;11.946;2023-02-04T15:48:30;1.77;;;0.90;;
31348;SDS011;17976;48.480;11.946;2023-02-04T15:50:57;1.63;;;0.90;;
31348;SDS011;17976;48.480;11.946;2023-02-04T15:53:23;1.75;;;0.90;;
31348;SDS011;17976;48.480;11.946;2023-02-04T15:55:49;1.38;;;0.85;;
31348;SDS011;17976;48.480;11.946;2023-02-04T15:58:15;1.52;;;0.95;;
31348;SDS011;17976;48.480;11.946;2023-02-04T16:00:41;1.73;;;0.93;;
31348;SDS011;17976;48.480;11.946;2023-02-04T16:03:07;2.83;;;1.10;;
31348;SDS011;17976;48.480;11.946;2023-02-04T16:05:33;1.52;;;1.17;;
31348;SDS011;17976;48.480;11.946;2023-02-04T16:07:59;1.33;;;0.70;;
31348;SDS011;17976;48.480;11.946;2023-02-04T16:10:25;1.98;;;0.93;;
31348;SDS011;17976;48.480;11.946;2023-02-04T16:12:52;1.77;;;0.80;;
31348;SDS011;17976;48.480;11.946;2023-02-04T16:15:20;1.50;;;0.80;;
31348;SDS011;17976;48.480;11.946;2023-02-04T16:17:46;1.77;;;0.90;;
31348;SDS011;17976;48.480;11.946;2023-02-04T16:20:13;1.08;;;0.60;;
31348;SDS011;17976;48.480;11.946;2023-02-04T16:22:39;4.07;;;1.00;;
31348;SDS011;17976;48.480;11.946;2023-02-04T16:25:05;1.90;;;0.90;;
31348;SDS011;17976;48.480;11.946;2023-02-04T16:27:31;10.18;;;1.10;;
31348;SDS011;17976;48.480;11.946;2023-02-04T16:29:58;1.20;;;0.68;;
31348;SDS011;17976;48.480;11.946;2023-02-04T16:32:24;1.13;;;0.85;;
31348;SDS011;17976;48.480;11.946;2023-02-04T16:34:50;2.03;;;0.73;;
31348;SDS011;17976;48.480;11.946;2023-02-04T16:37:16;0.77;;;0.55;;
31348;SDS011;17976;48.480;11.946;2023-02-04T16:39:42;0.77;;;0.70;;
31348;SDS011;17976;48.480;11.946;2023-02-04T16:42:09;2.47;;;0.80;;
31348;SDS011;17976;48.480;11.946;2023-02-04T16:44:35;0.93;;;0.90;;
31348;SDS011;17976;48.480;11.946;2023-02-04T16:47:02;2.03;;;0.90;;
31348;SDS011;17976;48.480;11.946;2023-02-04T16:49:28;2.55;;;0.88;;
31348;SDS011;17976;48.480;11.946;2023-02-04T16:51:54;2.25;;;1.00;;
31348;SDS011;17976;48.480;11.946;2023-02-04T16:54:20;1.05;;;0.82;;
31348;SDS011;17976;48.480;11.946;2023-02-04T16:56:46;1.05;;;0.77;;
31348;SDS011;17976;48.480;11.946;2023-02-04T16:59:12;1.98;;;0.80;;
31348;SDS011;17976;48.480;11.946;2023-02-04T17:01:38;2.13;;;0.95;;
31348;SDS011;17976;48.480;11.946;2023-02-04T17:04:04;0.88;;;0.70;;
31348;SDS011;17976;48.480;11.946;2023-02-04T17:06:31;1.13;;;1.00;;
31348;SDS011;17976;48.480;11.946;2023-02-04T17:08:57;1.02;;;0.73;;
31348;SDS011;17976;48.480;11.946;2023-02-04T17:11:23;1.08;;;0.90;;
31348;SDS011;17976;48.480;11.946;2023-02-04T17:13:52;1.02;;;0.63;;
31348;SDS011;17976;48.480;11.946;2023-02-04T17:16:18;1.02;;;0.80;;
31348;SDS011;17976;48.480;11.946;2023-02-04T17:18:44;1.25;;;0.70;;
31348;SDS011;17976;48.480;11.946;2023-02-04T17:21:10;3.30;;;0.60;;
31348;SDS011;17976;48.480;11.946;2023-02-04T17:23:36;0.93;;;0.70;;
31348;SDS011;17976;48.480;11.946;2023-02-04T17:26:02;2.35;;;0.77;;
31348;SDS011;17976;48.480;11.946;2023-02-04T17:28:28;2.55;;;1.00;;
31348;SDS011;17976;48.480;11.946;2023-02-04T17:30:54;1.38;;;0.70;;
31348;SDS011;17976;48.480;11.946;2023-02-04T17:33:20;1.50;;;0.82;;
31348;SDS011;17976;48.480;11.946;2023-02-04T17:35:46;3.08;;;1.42;;
31348;SDS011;17976;48.480;11.946;2023-02-04T17:38:12;3.88;;;1.33;;
31348;SDS011;17976;48.480;11.946;2023-02-04T17:40:38;3.20;;;1.85;;
31348;SDS011;17976;48.480;11.946;2023-02-04T17:43:04;3.10;;;2.10;;
31348;SDS011;17976;48.480;11.946;2023-02-04T17:45:31;3.63;;;2.33;;
31348;SDS011;17976;48.480;11.946;2023-02-04T17:47:57;4.40;;;2.40;;
31348;SDS011;17976;48.480;11.946;2023-02-04T17:50:23;5.20;;;2.80;;
31348;SDS011;17976;48.480;11.946;2023-02-04T17:52:49;4.53;;;3.03;;
31348;SDS011;17976;48.480;11.946;2023-02-04T17:55:23;4.28;;;2.67;;
31348;SDS011;17976;48.480;11.946;2023-02-04T17:57:51;5.68;;;2.28;;
31348;SDS011;17976;48.480;11.946;2023-02-04T18:00:18;3.92;;;2.13;;
31348;SDS011;17976;48.480;11.946;2023-02-04T18:02:45;28.25;;;13.23;;
31348;SDS011;17976;48.480;11.946;2023-02-04T18:05:12;4.85;;;2.35;;
31348;SDS011;17976;48.480;11.946;2023-02-04T18:07:39;2.75;;;1.90;;
31348;SDS011;17976;48.480;11.946;2023-02-04T18:10:18;4.68;;;2.00;;
31348;SDS011;17976;48.480;11.946;2023-02-04T18:12:45;4.80;;;2.40;;
31348;SDS011;17976;48.480;11.946;2023-02-04T18:15:19;4.97;;;2.50;;
31348;SDS011;17976;48.480;11.946;2023-02-04T18:17:48;4.93;;;2.20;;
31348;SDS011;17976;48.480;11.946;2023-02-04T18:20:16;7.20;;;3.38;;
31348;SDS011;17976;48.480;11.946;2023-02-04T18:22:42;4.97;;;3.03;;
31348;SDS011;17976;48.480;11.946;2023-02-04T18:25:12;5.40;;;3.33;;
31348;SDS011;17976;48.480;11.946;2023-02-04T18:27:40;7.03;;;3.50;;
31348;SDS011;17976;48.480;11.946;2023-02-04T18:30:24;5.78;;;3.03;;
31348;SDS011;17976;48.480;11.946;2023-02-04T18:32:51;6.75;;;3.38;;
31348;SDS011;17976;48.480;11.946;2023-02-04T18:37:52;9.88;;;4.10;;
31348;SDS011;17976;48.480;11.946;2023-02-04T18:40:24;9.82;;;4.28;;
31348;SDS011;17976;48.480;11.946;2023-02-04T18:42:54;11.25;;;4.28;;
31348;SDS011;17976;48.480;11.946;2023-02-04T18:45:23;8.68;;;3.72;;
31348;SDS011;17976;48.480;11.946;2023-02-04T18:47:51;5.18;;;3.30;;
31348;SDS011;17976;48.480;11.946;2023-02-04T18:52:44;9.88;;;3.28;;
31348;SDS011;17976;48.480;11.946;2023-02-04T18:55:25;7.97;;;3.10;;
31348;SDS011;17976;48.480;11.946;2023-02-04T18:57:53;4.87;;;2.70;;
31348;SDS011;17976;48.480;11.946;2023-02-04T19:00:21;4.82;;;2.85;;
31348;SDS011;17976;48.480;11.946;2023-02-04T19:02:48;4.10;;;2.42;;
31348;SDS011;17976;48.480;11.946;2023-02-04T19:05:24;5.00;;;3.00;;
31348;SDS011;17976;48.480;11.946;2023-02-04T19:08:12;5.72;;;3.00;;
31348;SDS011;17976;48.480;11.946;2023-02-04T19:10:40;6.10;;;3.47;;
31348;SDS011;17976;48.480;11.946;2023-02-04T19:13:16;5.05;;;2.78;;
31348;SDS011;17976;48.480;11.946;2023-02-04T19:15:42;8.45;;;3.15;;
31348;SDS011;17976;48.480;11.946;2023-02-04T19:18:17;7.40;;;3.70;;
31348;SDS011;17976;48.480;11.946;2023-02-04T19:20:46;7.10;;;3.72;;
31348;SDS011;17976;48.480;11.946;2023-02-04T19:23:12;9.10;;;4.30;;
31348;SDS011;17976;48.480;11.946;2023-02-04T19:25:39;7.45;;;3.75;;
31348;SDS011;17976;48.480;11.946;2023-02-04T19:28:27;7.93;;;4.18;;
31348;SDS011;17976;48.480;11.946;2023-02-04T19:31:03;6.95;;;3.65;;
31348;SDS011;17976;48.480;11.946;2023-02-04T19:35:55;5.70;;;3.40;;
31348;SDS011;17976;48.480;11.946;2023-02-04T19:38:28;9.73;;;3.28;;
31348;SDS011;17976;48.480;11.946;2023-02-04T19:40:58;5.65;;;3.67;;
31348;SDS011;17976;48.480;11.946;2023-02-04T19:43:34;7.95;;;4.05;;
31348;SDS011;17976;48.480;11.946;2023-02-04T19:46:01;6.53;;;3.88;;
31348;SDS011;17976;48.480;11.946;2023-02-04T19:48:37;9.25;;;4.68;;
31348;SDS011;17976;48.480;11.946;2023-02-04T19:53:51;13.63;;;5.53;;
31348;SDS011;17976;48.480;11.946;2023-02-04T19:56:39;11.68;;;5.90;;
31348;SDS011;17976;48.480;11.946;2023-02-04T20:04:22;13.95;;;7.10;;
31348;SDS011;17976;48.480;11.946;2023-02-04T20:06:48;11.05;;;6.03;;
31348;SDS011;17976;48.480;11.946;2023-02-04T20:09:15;13.77;;;6.22;;
31348;SDS011;17976;48.480;11.946;2023-02-04T20:19:16;15.70;;;7.50;;
31348;SDS011;17976;48.480;11.946;2023-02-04T20:21:59;14.73;;;7.90;;
31348;SDS011;17976;48.480;11.946;2023-02-04T20:24:25;13.70;;;7.03;;
31348;SDS011;17976;48.480;11.946;2023-02-04T20:26:52;15.88;;;7.30;;
31348;SDS011;17976;48.480;11.946;2023-02-04T20:29:20;13.85;;;7.55;;
31348;SDS011;17976;48.480;11.946;2023-02-04T20:31:46;10.70;;;6.90;;
31348;SDS011;17976;48.480;11.946;2023-02-04T20:34:20;13.57;;;7.10;;
31348;SDS011;17976;48.480;11.946;2023-02-04T20:39:28;10.50;;;6.18;;
31348;SDS011;17976;48.480;11.946;2023-02-04T20:42:05;12.80;;;6.35;;
31348;SDS011;17976;48.480;11.946;2023-02-04T20:44:41;9.10;;;5.35;;
31348;SDS011;17976;48.480;11.946;2023-02-04T20:47:12;9.73;;;5.72;;
31348;SDS011;17976;48.480;11.946;2023-02-04T20:49:40;9.47;;;5.30;;
31348;SDS011;17976;48.480;11.946;2023-02-04T20:52:10;10.20;;;5.63;;
31348;SDS011;17976;48.480;11.946;2023-02-04T20:54:52;11.38;;;5.38;;
31348;SDS011;17976;48.480;11.946;2023-02-04T20:57:19;9.68;;;5.35;;
31348;SDS011;17976;48.480;11.946;2023-02-04T20:59:45;6.90;;;4.13;;
31348;SDS011;17976;48.480;11.946;2023-02-04T21:12:36;7.18;;;3.88;;
31348;SDS011;17976;48.480;11.946;2023-02-04T21:15:05;7.35;;;3.80;;
31348;SDS011;17976;48.480;11.946;2023-02-04T21:17:31;8.32;;;4.43;;
31348;SDS011;17976;48.480;11.946;2023-02-04T21:19:57;8.35;;;4.28;;
31348;SDS011;17976;48.480;11.946;2023-02-04T21:22:23;6.57;;;4.05;;
31348;SDS011;17976;48.480;11.946;2023-02-04T21:24:49;6.38;;;3.97;;
31348;SDS011;17976;48.480;11.946;2023-02-04T21:27:15;8.90;;;3.80;;
31348;SDS011;17976;48.480;11.946;2023-02-04T21:29:45;5.70;;;3.75;;
31348;SDS011;17976;48.480;11.946;2023-02-04T21:32:12;6.70;;;4.40;;
31348;SDS011;17976;48.480;11.946;2023-02-04T21:34:37;8.32;;;4.25;;
31348;SDS011;17976;48.480;11.946;2023-02-04T21:37:03;6.80;;;4.15;;
31348;SDS011;17976;48.480;11.946;2023-02-04T21:39:29;11.02;;;4.20;;
31348;SDS011;17976;48.480;11.946;2023-02-04T21:41:55;8.25;;;4.00;;
31348;SDS011;17976;48.480;11.946;2023-02-04T21:44:38;9.02;;;4.43;;
31348;SDS011;17976;48.480;11.946;2023-02-04T21:47:04;7.85;;;4.78;;
31348;SDS011;17976;48.480;11.946;2023-02-04T21:49:30;12.00;;;4.72;;
31348;SDS011;17976;48.480;11.946;2023-02-04T21:51:56;9.10;;;4.82;;
31348;SDS011;17976;48.480;11.946;2023-02-04T21:54:22;11.80;;;5.30;;
31348;SDS011;17976;48.480;11.946;2023-02-04T21:56:48;26.30;;;10.65;;
31348;SDS011;17976;48.480;11.946;2023-02-04T21:59:13;12.68;;;6.57;;
31348;SDS011;17976;48.480;11.946;2023-02-04T22:01:42;10.15;;;5.95;;
31348;SDS011;17976;48.480;11.946;2023-02-04T22:04:08;12.25;;;6.07;;
31348;SDS011;17976;48.480;11.946;2023-02-04T22:06:34;11.80;;;5.93;;
31348;SDS011;17976;48.480;11.946;2023-02-04T22:09:00;11.75;;;6.00;;
31348;SDS011;17976;48.480;11.946;2023-02-04T22:11:26;11.23;;;6.50;;
31348;SDS011;17976;48.480;11.946;2023-02-04T22:13:52;11.50;;;5.80;;
31348;SDS011;17976;48.480;11.946;2023-02-04T22:16:18;10.38;;;6.07;;
31348;SDS011;17976;48.480;11.946;2023-02-04T22:18:44;11.82;;;5.78;;
31348;SDS011;17976;48.480;11.946;2023-02-04T22:21:10;10.10;;;5.75;;
31348;SDS011;17976;48.480;11.946;2023-02-04T22:23:36;11.82;;;5.95;;
31348;SDS011;17976;48.480;11.946;2023-02-04T22:26:03;14.32;;;5.95;;
31348;SDS011;17976;48.480;11.946;2023-02-04T22:28:29;12.38;;;5.43;;
31348;SDS011;17976;48.480;11.946;2023-02-04T22:30:55;9.80;;;5.45;;
31348;SDS011;17976;48.480;11.946;2023-02-04T22:33:21;11.90;;;5.68;;
31348;SDS011;17976;48.480;11.946;2023-02-04T22:35:47;11.82;;;6.10;;
31348;SDS011;17976;48.480;11.946;2023-02-04T22:38:13;11.30;;;5.80;;
31348;SDS011;17976;48.480;11.946;2023-02-04T22:40:39;11.30;;;5.57;;
31348;SDS011;17976;48.480;11.946;2023-02-04T22:43:05;11.15;;;5.70;;
31348;SDS011;17976;48.480;11.946;2023-02-04T22:45:31;14.57;;;6.00;;
31348;SDS011;17976;48.480;11.946;2023-02-04T22:47:57;11.30;;;5.95;;
31348;SDS011;17976;48.480;11.946;2023-02-04T22:50:23;10.55;;;6.10;;
31348;SDS011;17976;48.480;11.946;2023-02-04T22:52:49;11.90;;;5.80;;
31348;SDS011;17976;48.480;11.946;2023-02-04T22:55:15;13.20;;;6.40;;
31348;SDS011;17976;48.480;11.946;2023-02-04T22:57:41;12.07;;;5.88;;
31348;SDS011;17976;48.480;11.946;2023-02-04T23:00:07;11.27;;;5.28;;
31348;SDS011;17976;48.480;11.946;2023-02-04T23:02:33;10.77;;;5.88;;
31348;SDS011;17976;48.480;11.946;2023-02-04T23:04:59;10.50;;;5.43;;
31348;SDS011;17976;48.480;11.946;2023-02-04T23:07:25;11.60;;;5.93;;
31348;SDS011;17976;48.480;11.946;2023-02-04T23:09:51;11.48;;;5.97;;
31348;SDS011;17976;48.480;11.946;2023-02-04T23:12:17;10.82;;;5.65;;
31348;SDS011;17976;48.480;11.946;2023-02-04T23:14:44;12.07;;;5.93;;
31348;SDS011;17976;48.480;11.946;2023-02-04T23:17:10;17.13;;;7.43;;
31348;SDS011;17976;48.480;11.946;2023-02-04T23:19:37;13.50;;;6.20;;
31348;SDS011;17976;48.480;11.946;2023-02-04T23:22:03;15.20;;;7.38;;
31348;SDS011;17976;48.480;11.946;2023-02-04T23:24:30;13.57;;;6.82;;
31348;SDS011;17976;48.480;11.946;2023-02-04T23:26:56;15.98;;;7.32;;
31348;SDS011;17976;48.480;11.946;2023-02-04T23:29:24;12.35;;;6.60;;
31348;SDS011;17976;48.480;11.946;2023-02-04T23:31:50;12.30;;;7.28;;
31348;SDS011;17976;48.480;11.946;2023-02-04T23:34:16;12.02;;;6.60;;
31348;SDS011;17976;48.480;11.946;2023-02-04T23:36:42;12.52;;;7.32;;
31348;SDS011;17976;48.480;11.946;2023-02-04T23:39:10;10.95;;;6.20;;
31348;SDS011;17976;48.480;11.946;2023-02-04T23:41:36;12.85;;;6.30;;
31348;SDS011;17976;48.480;11.946;2023-02-04T23:44:02;10.82;;;5.85;;
31348;SDS011;17976;48.480;11.946;2023-02-04T23:46:28;10.93;;;5.63;;
31348;SDS011;17976;48.480;11.946;2023-02-04T23:48:54;13.23;;;6.28;;
31348;SDS011;17976;48.480;11.946;2023-02-04T23:51:20;10.10;;;6.10;;
31348;SDS011;17976;48.480;11.946;2023-02-04T23:53:46;10.73;;;5.75;;
31348;SDS011;17976;48.480;11.946;2023-02-04T23:56:12;10.07;;;5.32;;
31348;SDS011;17976;48.480;11.946;2023-02-04T23:58:38;12.27;;;5.63;;
